sensor_id;sensor_type;location;lat;lon;timestamp;P1;durP1;ratioP1;P2;durP2;ratioP2
69542;SDS011;56762;49.494;11.768;2023-03-31T00:00:50;3.37;;;1.33;;
69542;SDS011;56762;49.494;11.768;2023-03-31T00:03:19;4.68;;;1.52;;
69542;SDS011;56762;49.494;11.768;2023-03-31T00:05:55;8.80;;;2.13;;
69542;SDS011;56762;49.494;11.768;2023-03-31T00:08:24;5.22;;;1.20;;
69542;SDS011;56762;49.494;11.768;2023-03-31T00:10:57;2.42;;;1.10;;
69542;SDS011;56762;49.494;11.768;2023-03-31T00:13:26;4.23;;;1.10;;
69542;SDS011;56762;49.494;11.768;2023-03-31T00:15:57;3.47;;;1.10;;
69542;SDS011;56762;49.494;11.768;2023-03-31T00:18:28;5.30;;;1.30;;
69542;SDS011;56762;49.494;11.768;2023-03-31T00:21:09;3.92;;;1.30;;
69542;SDS011;56762;49.494;11.768;2023-03-31T00:23:41;5.78;;;2.15;;
69542;SDS011;56762;49.494;11.768;2023-03-31T00:26:09;4.47;;;1.80;;
69542;SDS011;56762;49.494;11.768;2023-03-31T00:28:37;4.03;;;1.67;;
69542;SDS011;56762;49.494;11.768;2023-03-31T00:31:05;6.28;;;1.88;;
69542;SDS011;56762;49.494;11.768;2023-03-31T00:33:33;4.38;;;2.05;;
69542;SDS011;56762;49.494;11.768;2023-03-31T00:36:01;6.35;;;1.88;;
69542;SDS011;56762;49.494;11.768;2023-03-31T00:38:33;6.20;;;1.93;;
69542;SDS011;56762;49.494;11.768;2023-03-31T00:41:02;6.82;;;2.17;;
69542;SDS011;56762;49.494;11.768;2023-03-31T00:43:32;4.97;;;2.20;;
69542;SDS011;56762;49.494;11.768;2023-03-31T00:48:50;4.85;;;2.33;;
69542;SDS011;56762;49.494;11.768;2023-03-31T00:51:23;8.20;;;2.03;;
69542;SDS011;56762;49.494;11.768;2023-03-31T00:53:56;5.57;;;1.75;;
69542;SDS011;56762;49.494;11.768;2023-03-31T00:56:28;4.75;;;2.05;;
69542;SDS011;56762;49.494;11.768;2023-03-31T00:59:00;4.65;;;1.58;;
69542;SDS011;56762;49.494;11.768;2023-03-31T01:01:30;4.35;;;1.67;;
69542;SDS011;56762;49.494;11.768;2023-03-31T01:04:01;4.03;;;2.17;;
69542;SDS011;56762;49.494;11.768;2023-03-31T01:06:30;7.40;;;2.35;;
69542;SDS011;56762;49.494;11.768;2023-03-31T01:09:00;4.80;;;2.35;;
69542;SDS011;56762;49.494;11.768;2023-03-31T01:11:32;7.97;;;2.35;;
69542;SDS011;56762;49.494;11.768;2023-03-31T01:14:01;7.88;;;2.38;;
69542;SDS011;56762;49.494;11.768;2023-03-31T01:16:29;9.10;;;1.43;;
69542;SDS011;56762;49.494;11.768;2023-03-31T01:18:59;4.47;;;1.08;;
69542;SDS011;56762;49.494;11.768;2023-03-31T01:21:48;2.80;;;0.75;;
69542;SDS011;56762;49.494;11.768;2023-03-31T01:24:46;4.10;;;1.10;;
69542;SDS011;56762;49.494;11.768;2023-03-31T01:27:42;5.60;;;1.27;;
69542;SDS011;56762;49.494;11.768;2023-03-31T01:30:33;9.00;;;2.30;;
69542;SDS011;56762;49.494;11.768;2023-03-31T01:33:27;8.52;;;2.28;;
69542;SDS011;56762;49.494;11.768;2023-03-31T01:39:50;11.52;;;5.18;;
69542;SDS011;56762;49.494;11.768;2023-03-31T01:42:34;17.38;;;7.75;;
69542;SDS011;56762;49.494;11.768;2023-03-31T01:45:09;13.17;;;6.20;;
69542;SDS011;56762;49.494;11.768;2023-03-31T01:47:45;13.50;;;5.90;;
69542;SDS011;56762;49.494;11.768;2023-03-31T01:50:21;9.43;;;5.03;;
69542;SDS011;56762;49.494;11.768;2023-03-31T01:52:55;8.50;;;3.78;;
69542;SDS011;56762;49.494;11.768;2023-03-31T01:55:30;9.13;;;3.60;;
69542;SDS011;56762;49.494;11.768;2023-03-31T01:58:04;11.57;;;3.77;;
69542;SDS011;56762;49.494;11.768;2023-03-31T02:00:39;13.35;;;5.10;;
69542;SDS011;56762;49.494;11.768;2023-03-31T02:03:13;12.93;;;4.97;;
69542;SDS011;56762;49.494;11.768;2023-03-31T02:05:48;12.55;;;4.93;;
69542;SDS011;56762;49.494;11.768;2023-03-31T02:08:21;8.25;;;3.30;;
69542;SDS011;56762;49.494;11.768;2023-03-31T02:10:56;9.80;;;3.90;;
69542;SDS011;56762;49.494;11.768;2023-03-31T02:13:25;7.28;;;2.67;;
69542;SDS011;56762;49.494;11.768;2023-03-31T02:15:56;28.55;;;9.25;;
69542;SDS011;56762;49.494;11.768;2023-03-31T02:18:28;58.90;;;15.32;;
69542;SDS011;56762;49.494;11.768;2023-03-31T02:21:04;31.15;;;11.07;;
69542;SDS011;56762;49.494;11.768;2023-03-31T02:23:33;34.43;;;9.53;;
69542;SDS011;56762;49.494;11.768;2023-03-31T02:26:07;31.95;;;9.82;;
69542;SDS011;56762;49.494;11.768;2023-03-31T02:28:38;29.00;;;8.68;;
69542;SDS011;56762;49.494;11.768;2023-03-31T02:31:10;28.52;;;7.60;;
69542;SDS011;56762;49.494;11.768;2023-03-31T02:33:44;25.77;;;6.88;;
69542;SDS011;56762;49.494;11.768;2023-03-31T02:36:12;21.80;;;5.77;;
69542;SDS011;56762;49.494;11.768;2023-03-31T02:38:42;21.85;;;5.82;;
69542;SDS011;56762;49.494;11.768;2023-03-31T02:41:15;20.67;;;5.45;;
69542;SDS011;56762;49.494;11.768;2023-03-31T02:43:43;24.05;;;6.50;;
69542;SDS011;56762;49.494;11.768;2023-03-31T02:46:10;20.35;;;6.15;;
69542;SDS011;56762;49.494;11.768;2023-03-31T02:48:39;16.07;;;5.07;;
69542;SDS011;56762;49.494;11.768;2023-03-31T02:51:16;13.85;;;5.20;;
69542;SDS011;56762;49.494;11.768;2023-03-31T02:54:08;13.80;;;4.03;;
69542;SDS011;56762;49.494;11.768;2023-03-31T02:56:58;11.70;;;3.67;;
69542;SDS011;56762;49.494;11.768;2023-03-31T02:59:43;8.93;;;3.05;;
69542;SDS011;56762;49.494;11.768;2023-03-31T03:02:20;11.13;;;3.47;;
69542;SDS011;56762;49.494;11.768;2023-03-31T03:05:00;8.27;;;2.10;;
69542;SDS011;56762;49.494;11.768;2023-03-31T03:07:41;6.90;;;1.50;;
69542;SDS011;56762;49.494;11.768;2023-03-31T03:10:16;11.27;;;2.15;;
69542;SDS011;56762;49.494;11.768;2023-03-31T03:12:54;10.05;;;2.42;;
69542;SDS011;56762;49.494;11.768;2023-03-31T03:15:29;4.40;;;1.33;;
69542;SDS011;56762;49.494;11.768;2023-03-31T03:18:02;4.47;;;1.10;;
69542;SDS011;56762;49.494;11.768;2023-03-31T03:20:32;3.35;;;0.82;;
69542;SDS011;56762;49.494;11.768;2023-03-31T03:23:01;6.97;;;0.90;;
69542;SDS011;56762;49.494;11.768;2023-03-31T03:25:29;2.95;;;1.10;;
69542;SDS011;56762;49.494;11.768;2023-03-31T03:27:58;5.50;;;0.70;;
69542;SDS011;56762;49.494;11.768;2023-03-31T03:30:26;3.58;;;1.00;;
69542;SDS011;56762;49.494;11.768;2023-03-31T03:32:54;5.35;;;1.40;;
69542;SDS011;56762;49.494;11.768;2023-03-31T03:35:24;3.47;;;1.13;;
69542;SDS011;56762;49.494;11.768;2023-03-31T03:37:52;4.43;;;1.08;;
69542;SDS011;56762;49.494;11.768;2023-03-31T03:40:20;3.13;;;0.90;;
69542;SDS011;56762;49.494;11.768;2023-03-31T03:42:48;2.55;;;0.93;;
69542;SDS011;56762;49.494;11.768;2023-03-31T03:45:17;3.95;;;1.10;;
69542;SDS011;56762;49.494;11.768;2023-03-31T03:47:46;3.00;;;1.00;;
69542;SDS011;56762;49.494;11.768;2023-03-31T03:50:14;3.30;;;1.00;;
69542;SDS011;56762;49.494;11.768;2023-03-31T03:52:42;3.30;;;1.03;;
69542;SDS011;56762;49.494;11.768;2023-03-31T03:55:11;2.80;;;0.85;;
69542;SDS011;56762;49.494;11.768;2023-03-31T03:57:39;4.38;;;1.15;;
69542;SDS011;56762;49.494;11.768;2023-03-31T04:00:07;4.88;;;1.23;;
69542;SDS011;56762;49.494;11.768;2023-03-31T04:02:39;3.70;;;0.80;;
69542;SDS011;56762;49.494;11.768;2023-03-31T04:05:07;5.33;;;1.30;;
69542;SDS011;56762;49.494;11.768;2023-03-31T04:07:36;5.43;;;1.20;;
69542;SDS011;56762;49.494;11.768;2023-03-31T04:10:05;3.53;;;1.20;;
69542;SDS011;56762;49.494;11.768;2023-03-31T04:12:34;5.97;;;1.48;;
69542;SDS011;56762;49.494;11.768;2023-03-31T04:15:02;5.30;;;1.63;;
69542;SDS011;56762;49.494;11.768;2023-03-31T04:17:33;4.47;;;1.33;;
69542;SDS011;56762;49.494;11.768;2023-03-31T04:20:04;3.70;;;1.58;;
69542;SDS011;56762;49.494;11.768;2023-03-31T04:22:34;4.78;;;1.50;;
69542;SDS011;56762;49.494;11.768;2023-03-31T04:25:06;4.85;;;1.65;;
69542;SDS011;56762;49.494;11.768;2023-03-31T04:27:42;6.05;;;1.88;;
69542;SDS011;56762;49.494;11.768;2023-03-31T04:30:12;4.80;;;1.50;;
69542;SDS011;56762;49.494;11.768;2023-03-31T04:32:48;4.25;;;1.90;;
69542;SDS011;56762;49.494;11.768;2023-03-31T04:35:20;9.57;;;3.75;;
69542;SDS011;56762;49.494;11.768;2023-03-31T04:37:48;7.78;;;2.97;;
69542;SDS011;56762;49.494;11.768;2023-03-31T04:40:23;8.27;;;2.20;;
69542;SDS011;56762;49.494;11.768;2023-03-31T04:42:52;8.30;;;1.50;;
69542;SDS011;56762;49.494;11.768;2023-03-31T04:45:20;2.95;;;1.42;;
69542;SDS011;56762;49.494;11.768;2023-03-31T04:47:47;5.45;;;1.83;;
69542;SDS011;56762;49.494;11.768;2023-03-31T04:50:15;8.73;;;1.50;;
69542;SDS011;56762;49.494;11.768;2023-03-31T04:52:45;4.97;;;1.23;;
69542;SDS011;56762;49.494;11.768;2023-03-31T04:55:13;5.73;;;1.27;;
69542;SDS011;56762;49.494;11.768;2023-03-31T04:57:41;5.50;;;1.20;;
69542;SDS011;56762;49.494;11.768;2023-03-31T05:00:09;4.88;;;1.15;;
69542;SDS011;56762;49.494;11.768;2023-03-31T05:02:39;5.53;;;2.75;;
69542;SDS011;56762;49.494;11.768;2023-03-31T05:05:07;5.78;;;1.35;;
69542;SDS011;56762;49.494;11.768;2023-03-31T05:07:35;6.00;;;1.23;;
69542;SDS011;56762;49.494;11.768;2023-03-31T05:10:05;5.32;;;1.33;;
69542;SDS011;56762;49.494;11.768;2023-03-31T05:12:34;5.13;;;2.10;;
69542;SDS011;56762;49.494;11.768;2023-03-31T05:15:03;5.43;;;1.73;;
69542;SDS011;56762;49.494;11.768;2023-03-31T05:17:32;5.75;;;2.00;;
69542;SDS011;56762;49.494;11.768;2023-03-31T05:20:02;5.03;;;1.33;;
69542;SDS011;56762;49.494;11.768;2023-03-31T05:22:32;4.90;;;1.65;;
69542;SDS011;56762;49.494;11.768;2023-03-31T05:25:01;4.93;;;1.63;;
69542;SDS011;56762;49.494;11.768;2023-03-31T05:27:31;4.13;;;1.70;;
69542;SDS011;56762;49.494;11.768;2023-03-31T05:29:59;6.40;;;2.05;;
69542;SDS011;56762;49.494;11.768;2023-03-31T05:32:28;4.30;;;1.70;;
69542;SDS011;56762;49.494;11.768;2023-03-31T05:34:56;8.32;;;2.10;;
69542;SDS011;56762;49.494;11.768;2023-03-31T05:37:26;4.72;;;2.15;;
69542;SDS011;56762;49.494;11.768;2023-03-31T05:39:53;5.25;;;2.53;;
69542;SDS011;56762;49.494;11.768;2023-03-31T05:42:21;8.88;;;2.67;;
69542;SDS011;56762;49.494;11.768;2023-03-31T05:44:50;4.93;;;1.80;;
69542;SDS011;56762;49.494;11.768;2023-03-31T05:47:18;5.15;;;1.98;;
69542;SDS011;56762;49.494;11.768;2023-03-31T05:49:46;5.30;;;2.00;;
69542;SDS011;56762;49.494;11.768;2023-03-31T05:52:14;5.65;;;1.50;;
69542;SDS011;56762;49.494;11.768;2023-03-31T05:54:42;5.70;;;1.50;;
69542;SDS011;56762;49.494;11.768;2023-03-31T05:57:10;4.07;;;1.40;;
69542;SDS011;56762;49.494;11.768;2023-03-31T05:59:38;5.28;;;1.52;;
69542;SDS011;56762;49.494;11.768;2023-03-31T06:02:10;6.00;;;1.83;;
69542;SDS011;56762;49.494;11.768;2023-03-31T06:04:40;4.93;;;1.38;;
69542;SDS011;56762;49.494;11.768;2023-03-31T06:07:09;6.55;;;2.17;;
69542;SDS011;56762;49.494;11.768;2023-03-31T06:09:36;4.43;;;1.80;;
69542;SDS011;56762;49.494;11.768;2023-03-31T06:12:04;6.38;;;2.20;;
69542;SDS011;56762;49.494;11.768;2023-03-31T06:14:33;3.78;;;2.08;;
69542;SDS011;56762;49.494;11.768;2023-03-31T06:17:01;7.68;;;2.83;;
69542;SDS011;56762;49.494;11.768;2023-03-31T06:19:30;9.57;;;5.07;;
69542;SDS011;56762;49.494;11.768;2023-03-31T06:21:58;17.03;;;9.67;;
69542;SDS011;56762;49.494;11.768;2023-03-31T06:24:26;17.08;;;9.30;;
69542;SDS011;56762;49.494;11.768;2023-03-31T06:26:54;10.15;;;5.57;;
69542;SDS011;56762;49.494;11.768;2023-03-31T06:29:23;9.13;;;5.13;;
69542;SDS011;56762;49.494;11.768;2023-03-31T06:31:50;10.45;;;5.30;;
69542;SDS011;56762;49.494;11.768;2023-03-31T06:34:18;8.73;;;3.40;;
69542;SDS011;56762;49.494;11.768;2023-03-31T06:36:55;5.57;;;3.15;;
69542;SDS011;56762;49.494;11.768;2023-03-31T06:39:26;5.15;;;2.20;;
69542;SDS011;56762;49.494;11.768;2023-03-31T06:41:56;5.45;;;1.70;;
69542;SDS011;56762;49.494;11.768;2023-03-31T06:44:24;4.95;;;1.60;;
69542;SDS011;56762;49.494;11.768;2023-03-31T06:46:51;9.67;;;3.30;;
69542;SDS011;56762;49.494;11.768;2023-03-31T06:49:21;9.65;;;3.47;;
69542;SDS011;56762;49.494;11.768;2023-03-31T06:51:49;8.27;;;3.83;;
69542;SDS011;56762;49.494;11.768;2023-03-31T06:54:21;7.85;;;3.38;;
69542;SDS011;56762;49.494;11.768;2023-03-31T06:56:52;7.95;;;2.38;;
69542;SDS011;56762;49.494;11.768;2023-03-31T06:59:20;6.23;;;2.23;;
69542;SDS011;56762;49.494;11.768;2023-03-31T07:01:48;8.02;;;1.80;;
69542;SDS011;56762;49.494;11.768;2023-03-31T07:04:20;4.60;;;1.88;;
69542;SDS011;56762;49.494;11.768;2023-03-31T07:06:50;5.00;;;1.83;;
69542;SDS011;56762;49.494;11.768;2023-03-31T07:09:19;5.75;;;1.75;;
69542;SDS011;56762;49.494;11.768;2023-03-31T07:11:50;6.63;;;1.83;;
69542;SDS011;56762;49.494;11.768;2023-03-31T07:14:17;6.13;;;1.98;;
69542;SDS011;56762;49.494;11.768;2023-03-31T07:16:45;5.03;;;1.70;;
69542;SDS011;56762;49.494;11.768;2023-03-31T07:19:13;4.72;;;1.63;;
69542;SDS011;56762;49.494;11.768;2023-03-31T07:21:41;7.45;;;3.00;;
69542;SDS011;56762;49.494;11.768;2023-03-31T07:24:09;7.23;;;2.80;;
69542;SDS011;56762;49.494;11.768;2023-03-31T07:26:36;6.03;;;2.10;;
69542;SDS011;56762;49.494;11.768;2023-03-31T07:29:06;4.43;;;1.77;;
69542;SDS011;56762;49.494;11.768;2023-03-31T07:31:33;5.15;;;2.03;;
69542;SDS011;56762;49.494;11.768;2023-03-31T07:34:02;7.85;;;2.05;;
69542;SDS011;56762;49.494;11.768;2023-03-31T07:36:31;9.93;;;2.00;;
69542;SDS011;56762;49.494;11.768;2023-03-31T07:38:59;8.20;;;2.95;;
69542;SDS011;56762;49.494;11.768;2023-03-31T07:41:27;6.25;;;2.40;;
69542;SDS011;56762;49.494;11.768;2023-03-31T07:43:55;10.40;;;3.08;;
69542;SDS011;56762;49.494;11.768;2023-03-31T07:46:25;4.43;;;1.90;;
69542;SDS011;56762;49.494;11.768;2023-03-31T07:48:54;7.67;;;2.57;;
69542;SDS011;56762;49.494;11.768;2023-03-31T07:51:24;6.43;;;2.28;;
69542;SDS011;56762;49.494;11.768;2023-03-31T07:53:53;5.72;;;2.42;;
69542;SDS011;56762;49.494;11.768;2023-03-31T07:56:22;7.38;;;2.38;;
69542;SDS011;56762;49.494;11.768;2023-03-31T07:58:51;6.88;;;2.50;;
69542;SDS011;56762;49.494;11.768;2023-03-31T08:01:24;5.93;;;2.07;;
69542;SDS011;56762;49.494;11.768;2023-03-31T08:03:54;5.97;;;2.70;;
69542;SDS011;56762;49.494;11.768;2023-03-31T08:06:23;7.65;;;2.92;;
69542;SDS011;56762;49.494;11.768;2023-03-31T08:08:52;7.32;;;2.53;;
69542;SDS011;56762;49.494;11.768;2023-03-31T08:11:20;7.20;;;2.75;;
69542;SDS011;56762;49.494;11.768;2023-03-31T08:13:49;10.13;;;3.40;;
69542;SDS011;56762;49.494;11.768;2023-03-31T08:16:17;6.47;;;2.85;;
69542;SDS011;56762;49.494;11.768;2023-03-31T08:18:46;8.13;;;3.00;;
69542;SDS011;56762;49.494;11.768;2023-03-31T08:21:15;6.65;;;2.60;;
69542;SDS011;56762;49.494;11.768;2023-03-31T08:23:42;8.35;;;3.08;;
69542;SDS011;56762;49.494;11.768;2023-03-31T08:26:11;4.70;;;2.33;;
69542;SDS011;56762;49.494;11.768;2023-03-31T08:28:43;7.43;;;2.92;;
69542;SDS011;56762;49.494;11.768;2023-03-31T08:31:10;5.22;;;2.60;;
69542;SDS011;56762;49.494;11.768;2023-03-31T08:33:41;9.48;;;3.05;;
69542;SDS011;56762;49.494;11.768;2023-03-31T08:36:11;8.85;;;3.08;;
69542;SDS011;56762;49.494;11.768;2023-03-31T08:38:41;8.33;;;3.10;;
69542;SDS011;56762;49.494;11.768;2023-03-31T08:41:14;7.28;;;2.72;;
69542;SDS011;56762;49.494;11.768;2023-03-31T08:43:56;10.45;;;3.60;;
69542;SDS011;56762;49.494;11.768;2023-03-31T08:46:28;9.52;;;2.90;;
69542;SDS011;56762;49.494;11.768;2023-03-31T08:48:59;6.57;;;3.28;;
69542;SDS011;56762;49.494;11.768;2023-03-31T08:51:30;7.77;;;2.77;;
69542;SDS011;56762;49.494;11.768;2023-03-31T08:54:00;10.30;;;3.35;;
69542;SDS011;56762;49.494;11.768;2023-03-31T08:56:32;9.30;;;3.50;;
69542;SDS011;56762;49.494;11.768;2023-03-31T08:59:03;8.60;;;3.05;;
69542;SDS011;56762;49.494;11.768;2023-03-31T09:01:43;9.20;;;2.85;;
69542;SDS011;56762;49.494;11.768;2023-03-31T09:04:26;9.87;;;3.73;;
69542;SDS011;56762;49.494;11.768;2023-03-31T09:07:10;7.65;;;3.92;;
69542;SDS011;56762;49.494;11.768;2023-03-31T09:09:44;7.55;;;4.50;;
69542;SDS011;56762;49.494;11.768;2023-03-31T09:12:19;6.15;;;3.40;;
69542;SDS011;56762;49.494;11.768;2023-03-31T09:14:52;6.40;;;2.90;;
69542;SDS011;56762;49.494;11.768;2023-03-31T09:17:27;5.33;;;2.23;;
69542;SDS011;56762;49.494;11.768;2023-03-31T09:19:58;3.92;;;2.35;;
69542;SDS011;56762;49.494;11.768;2023-03-31T09:22:32;6.38;;;2.55;;
69542;SDS011;56762;49.494;11.768;2023-03-31T09:25:05;4.88;;;1.83;;
69542;SDS011;56762;49.494;11.768;2023-03-31T09:27:40;5.13;;;2.20;;
69542;SDS011;56762;49.494;11.768;2023-03-31T09:30:09;5.00;;;2.07;;
69542;SDS011;56762;49.494;11.768;2023-03-31T09:32:43;4.55;;;1.90;;
69542;SDS011;56762;49.494;11.768;2023-03-31T09:35:16;4.70;;;1.83;;
69542;SDS011;56762;49.494;11.768;2023-03-31T09:37:48;6.25;;;1.40;;
69542;SDS011;56762;49.494;11.768;2023-03-31T09:40:17;6.10;;;1.98;;
69542;SDS011;56762;49.494;11.768;2023-03-31T09:42:49;4.93;;;1.80;;
69542;SDS011;56762;49.494;11.768;2023-03-31T09:45:21;4.15;;;1.67;;
69542;SDS011;56762;49.494;11.768;2023-03-31T09:47:50;5.68;;;2.10;;
69542;SDS011;56762;49.494;11.768;2023-03-31T09:50:20;3.97;;;1.80;;
69542;SDS011;56762;49.494;11.768;2023-03-31T09:52:52;4.88;;;2.65;;
69542;SDS011;56762;49.494;11.768;2023-03-31T09:55:23;7.77;;;1.97;;
69542;SDS011;56762;49.494;11.768;2023-03-31T09:58:05;5.10;;;2.00;;
69542;SDS011;56762;49.494;11.768;2023-03-31T10:00:34;5.75;;;2.17;;
69542;SDS011;56762;49.494;11.768;2023-03-31T10:03:03;5.25;;;2.30;;
69542;SDS011;56762;49.494;11.768;2023-03-31T10:05:34;7.45;;;2.53;;
69542;SDS011;56762;49.494;11.768;2023-03-31T10:08:13;4.37;;;2.13;;
69542;SDS011;56762;49.494;11.768;2023-03-31T10:10:47;4.65;;;2.53;;
69542;SDS011;56762;49.494;11.768;2023-03-31T10:13:18;6.55;;;2.63;;
69542;SDS011;56762;49.494;11.768;2023-03-31T10:15:50;5.57;;;2.40;;
69542;SDS011;56762;49.494;11.768;2023-03-31T10:18:19;7.53;;;2.50;;
69542;SDS011;56762;49.494;11.768;2023-03-31T10:20:57;4.60;;;2.40;;
69542;SDS011;56762;49.494;11.768;2023-03-31T10:23:28;4.20;;;1.88;;
69542;SDS011;56762;49.494;11.768;2023-03-31T10:25:57;4.55;;;1.88;;
69542;SDS011;56762;49.494;11.768;2023-03-31T10:28:26;5.68;;;2.33;;
69542;SDS011;56762;49.494;11.768;2023-03-31T10:30:59;5.72;;;2.38;;
69542;SDS011;56762;49.494;11.768;2023-03-31T10:33:29;5.37;;;1.93;;
69542;SDS011;56762;49.494;11.768;2023-03-31T10:36:01;4.75;;;2.10;;
69542;SDS011;56762;49.494;11.768;2023-03-31T10:38:36;4.38;;;1.70;;
69542;SDS011;56762;49.494;11.768;2023-03-31T10:41:07;3.63;;;1.80;;
69542;SDS011;56762;49.494;11.768;2023-03-31T10:43:37;4.50;;;1.80;;
69542;SDS011;56762;49.494;11.768;2023-03-31T10:46:08;4.77;;;1.73;;
69542;SDS011;56762;49.494;11.768;2023-03-31T10:48:38;5.22;;;1.90;;
69542;SDS011;56762;49.494;11.768;2023-03-31T10:51:10;3.55;;;1.58;;
69542;SDS011;56762;49.494;11.768;2023-03-31T10:53:45;3.78;;;1.70;;
69542;SDS011;56762;49.494;11.768;2023-03-31T10:56:26;3.10;;;1.58;;
69542;SDS011;56762;49.494;11.768;2023-03-31T10:59:07;5.00;;;1.83;;
69542;SDS011;56762;49.494;11.768;2023-03-31T11:01:49;3.78;;;1.63;;
69542;SDS011;56762;49.494;11.768;2023-03-31T11:04:30;4.32;;;1.63;;
69542;SDS011;56762;49.494;11.768;2023-03-31T11:07:10;3.25;;;1.25;;
69542;SDS011;56762;49.494;11.768;2023-03-31T11:09:51;3.85;;;1.40;;
69542;SDS011;56762;49.494;11.768;2023-03-31T11:12:30;3.43;;;1.40;;
69542;SDS011;56762;49.494;11.768;2023-03-31T11:15:07;3.85;;;1.30;;
69542;SDS011;56762;49.494;11.768;2023-03-31T11:17:48;6.95;;;1.27;;
69542;SDS011;56762;49.494;11.768;2023-03-31T11:20:25;3.70;;;1.40;;
69542;SDS011;56762;49.494;11.768;2023-03-31T11:22:59;7.43;;;3.08;;
69542;SDS011;56762;49.494;11.768;2023-03-31T11:25:38;5.33;;;2.00;;
69542;SDS011;56762;49.494;11.768;2023-03-31T11:28:22;3.83;;;1.00;;
69542;SDS011;56762;49.494;11.768;2023-03-31T11:30:57;4.10;;;1.25;;
69542;SDS011;56762;49.494;11.768;2023-03-31T11:33:42;5.53;;;1.10;;
69542;SDS011;56762;49.494;11.768;2023-03-31T11:36:32;6.47;;;1.45;;
69542;SDS011;56762;49.494;11.768;2023-03-31T11:39:15;5.33;;;1.40;;
69542;SDS011;56762;49.494;11.768;2023-03-31T11:41:54;4.70;;;1.20;;
69542;SDS011;56762;49.494;11.768;2023-03-31T11:44:26;4.30;;;1.00;;
69542;SDS011;56762;49.494;11.768;2023-03-31T11:46:57;6.63;;;1.42;;
69542;SDS011;56762;49.494;11.768;2023-03-31T11:49:32;8.45;;;1.70;;
69542;SDS011;56762;49.494;11.768;2023-03-31T11:52:05;6.13;;;2.03;;
69542;SDS011;56762;49.494;11.768;2023-03-31T11:54:38;3.92;;;1.23;;
69542;SDS011;56762;49.494;11.768;2023-03-31T11:57:12;7.97;;;2.67;;
69542;SDS011;56762;49.494;11.768;2023-03-31T11:59:44;6.38;;;2.28;;
69542;SDS011;56762;49.494;11.768;2023-03-31T12:02:17;12.30;;;3.90;;
69542;SDS011;56762;49.494;11.768;2023-03-31T12:04:50;7.20;;;1.80;;
69542;SDS011;56762;49.494;11.768;2023-03-31T12:07:22;5.45;;;1.65;;
69542;SDS011;56762;49.494;11.768;2023-03-31T12:09:57;5.72;;;1.67;;
69542;SDS011;56762;49.494;11.768;2023-03-31T12:12:33;5.38;;;1.90;;
69542;SDS011;56762;49.494;11.768;2023-03-31T12:15:10;3.80;;;0.98;;
69542;SDS011;56762;49.494;11.768;2023-03-31T12:17:44;5.13;;;1.23;;
69542;SDS011;56762;49.494;11.768;2023-03-31T12:20:18;5.43;;;1.08;;
69542;SDS011;56762;49.494;11.768;2023-03-31T12:22:51;5.30;;;1.00;;
69542;SDS011;56762;49.494;11.768;2023-03-31T12:25:22;3.53;;;1.00;;
69542;SDS011;56762;49.494;11.768;2023-03-31T12:27:53;3.58;;;0.80;;
69542;SDS011;56762;49.494;11.768;2023-03-31T12:30:25;4.73;;;0.90;;
69542;SDS011;56762;49.494;11.768;2023-03-31T12:32:58;6.57;;;0.80;;
69542;SDS011;56762;49.494;11.768;2023-03-31T12:35:31;3.90;;;0.60;;
69542;SDS011;56762;49.494;11.768;2023-03-31T12:38:28;4.65;;;0.50;;
69542;SDS011;56762;49.494;11.768;2023-03-31T12:41:07;4.57;;;0.35;;
69542;SDS011;56762;49.494;11.768;2023-03-31T12:46:47;3.35;;;0.60;;
69542;SDS011;56762;49.494;11.768;2023-03-31T12:49:31;1.88;;;0.40;;
69542;SDS011;56762;49.494;11.768;2023-03-31T12:52:07;2.28;;;0.45;;
69542;SDS011;56762;49.494;11.768;2023-03-31T12:57:50;4.10;;;0.33;;
69542;SDS011;56762;49.494;11.768;2023-03-31T13:00:21;2.30;;;0.20;;
69542;SDS011;56762;49.494;11.768;2023-03-31T13:05:52;1.83;;;0.28;;
69542;SDS011;56762;49.494;11.768;2023-03-31T13:11:21;2.33;;;0.20;;
69542;SDS011;56762;49.494;11.768;2023-03-31T13:14:01;2.08;;;0.30;;
69542;SDS011;56762;49.494;11.768;2023-03-31T13:16:33;2.25;;;0.20;;
69542;SDS011;56762;49.494;11.768;2023-03-31T13:19:02;1.52;;;0.28;;
69542;SDS011;56762;49.494;11.768;2023-03-31T13:21:30;3.13;;;0.40;;
69542;SDS011;56762;49.494;11.768;2023-03-31T13:23:58;1.83;;;0.30;;
69542;SDS011;56762;49.494;11.768;2023-03-31T13:26:38;1.10;;;0.20;;
69542;SDS011;56762;49.494;11.768;2023-03-31T13:29:08;3.00;;;0.30;;
69542;SDS011;56762;49.494;11.768;2023-03-31T13:32:16;1.60;;;0.22;;
69542;SDS011;56762;49.494;11.768;2023-03-31T13:34:49;1.63;;;0.20;;
69542;SDS011;56762;49.494;11.768;2023-03-31T13:37:27;1.93;;;0.23;;
69542;SDS011;56762;49.494;11.768;2023-03-31T13:40:07;3.47;;;0.50;;
69542;SDS011;56762;49.494;11.768;2023-03-31T13:43:02;2.38;;;0.40;;
69542;SDS011;56762;49.494;11.768;2023-03-31T13:45:53;2.40;;;0.80;;
69542;SDS011;56762;49.494;11.768;2023-03-31T13:48:38;3.13;;;0.50;;
69542;SDS011;56762;49.494;11.768;2023-03-31T13:51:14;6.37;;;1.00;;
69542;SDS011;56762;49.494;11.768;2023-03-31T13:53:55;5.07;;;1.13;;
69542;SDS011;56762;49.494;11.768;2023-03-31T13:56:40;3.42;;;0.57;;
69542;SDS011;56762;49.494;11.768;2023-03-31T13:59:25;2.60;;;0.60;;
69542;SDS011;56762;49.494;11.768;2023-03-31T14:02:20;3.25;;;0.63;;
69542;SDS011;56762;49.494;11.768;2023-03-31T14:05:15;3.33;;;1.23;;
69542;SDS011;56762;49.494;11.768;2023-03-31T14:07:54;4.60;;;1.00;;
69542;SDS011;56762;49.494;11.768;2023-03-31T14:10:25;2.67;;;0.95;;
69542;SDS011;56762;49.494;11.768;2023-03-31T14:13:05;5.25;;;0.63;;
69542;SDS011;56762;49.494;11.768;2023-03-31T14:15:35;2.05;;;0.50;;
69542;SDS011;56762;49.494;11.768;2023-03-31T14:18:05;2.70;;;0.30;;
69542;SDS011;56762;49.494;11.768;2023-03-31T14:20:37;5.80;;;1.77;;
69542;SDS011;56762;49.494;11.768;2023-03-31T14:23:15;5.07;;;1.40;;
69542;SDS011;56762;49.494;11.768;2023-03-31T14:25:57;4.72;;;1.30;;
69542;SDS011;56762;49.494;11.768;2023-03-31T14:28:34;4.13;;;1.10;;
69542;SDS011;56762;49.494;11.768;2023-03-31T14:31:38;4.73;;;0.93;;
69542;SDS011;56762;49.494;11.768;2023-03-31T14:37:11;4.63;;;1.10;;
69542;SDS011;56762;49.494;11.768;2023-03-31T14:39:44;5.72;;;1.08;;
69542;SDS011;56762;49.494;11.768;2023-03-31T14:42:14;4.68;;;1.10;;
69542;SDS011;56762;49.494;11.768;2023-03-31T14:44:44;5.70;;;1.50;;
69542;SDS011;56762;49.494;11.768;2023-03-31T14:47:15;5.82;;;1.33;;
69542;SDS011;56762;49.494;11.768;2023-03-31T14:49:57;4.25;;;1.15;;
69542;SDS011;56762;49.494;11.768;2023-03-31T14:52:33;5.88;;;1.35;;
69542;SDS011;56762;49.494;11.768;2023-03-31T14:55:01;3.70;;;0.50;;
69542;SDS011;56762;49.494;11.768;2023-03-31T14:57:30;6.27;;;1.03;;
69542;SDS011;56762;49.494;11.768;2023-03-31T15:00:02;5.13;;;0.70;;
69542;SDS011;56762;49.494;11.768;2023-03-31T15:02:34;4.05;;;0.70;;
69542;SDS011;56762;49.494;11.768;2023-03-31T15:05:03;3.45;;;0.52;;
69542;SDS011;56762;49.494;11.768;2023-03-31T15:07:36;2.67;;;1.17;;
69542;SDS011;56762;49.494;11.768;2023-03-31T15:10:11;4.73;;;1.00;;
69542;SDS011;56762;49.494;11.768;2023-03-31T15:12:45;7.45;;;2.15;;
69542;SDS011;56762;49.494;11.768;2023-03-31T15:15:15;3.97;;;1.75;;
69542;SDS011;56762;49.494;11.768;2023-03-31T15:17:45;5.05;;;1.45;;
69542;SDS011;56762;49.494;11.768;2023-03-31T15:20:22;5.25;;;2.78;;
69542;SDS011;56762;49.494;11.768;2023-03-31T15:22:55;12.23;;;7.67;;
69542;SDS011;56762;49.494;11.768;2023-03-31T15:25:25;4.63;;;1.30;;
69542;SDS011;56762;49.494;11.768;2023-03-31T15:27:58;4.63;;;1.52;;